Livorno Express — ZCDV9 — position and weather

sailwx.info

Track history (hours):
 
Tides and Currents Weather Stations Pressure Air Temp Water Temp Dewpoint Dewpoint Depression Visibility Wind Speed Wind Dir Waves Ship Positions

Livorno Express

Last reported at 2014-Dec-12 11:22 UTC. Time now 2014-Dec-19 12:58 UTC.
Position N 38°54' E 009°29'.

Type: Ship (hazmat cat A). MMSI: 310541000.

Date/timePositionNaut miles runAvg speedWind from/ knotsBaromVisibWave heightAir tempDewpointWater temp
2014-Dec-12 11:22N 38°54' E 009°29'1316.5
2014-Dec-12 10:34N 39°02' E 009°14'1212.3
2014-Dec-12 09:33N 39°12' E 009°05'1 1.1
2014-Dec-12 08:32N 39°13' E 009°04'0 0.0
2014-Dec-12 07:32N 39°13' E 009°04'0 0.0
2014-Dec-12 06:32N 39°13' E 009°04'0 0.0
2014-Dec-12 05:32N 39°13' E 009°04'0 0.0
2014-Dec-12 04:32N 39°13' E 009°04'0 0.0
2014-Dec-12 03:32N 39°13' E 009°04'0 0.0
2014-Dec-12 02:32N 39°13' E 009°04'0 0.0
2014-Dec-12 01:33N 39°13' E 009°04'0 0.0
2014-Dec-12 00:33N 39°13' E 009°04'0 0.0
2014-Dec-11 23:33N 39°13' E 009°04'0 0.0
2014-Dec-11 22:32N 39°13' E 009°04'0 0.0
2014-Dec-11 21:33N 39°13' E 009°04'0 0.0
2014-Dec-11 20:33N 39°13' E 009°04'0 0.0
2014-Dec-11 19:32N 39°13' E 009°04'0 0.0
2014-Dec-11 18:32N 39°13' E 009°04'0 0.0
2014-Dec-11 17:32N 39°13' E 009°04'0 0.0
2014-Dec-11 16:32N 39°13' E 009°04'0 0.0
2014-Dec-11 15:33N 39°13' E 009°04'0 0.0
2014-Dec-11 14:33N 39°13' E 009°04'0 0.0
2014-Dec-11 13:32N 39°13' E 009°04'0 0.0
2014-Dec-11 12:32N 39°13' E 009°04'0 0.0
2014-Dec-11 11:31N 39°13' E 009°04'0 0.0
2014-Dec-11 10:31N 39°13' E 009°04'0 0.0
2014-Dec-11 09:31N 39°13' E 009°04'0 0.0
2014-Dec-11 08:33N 39°13' E 009°04'4 4.0
2014-Dec-11 07:33N 39°09' E 009°06'4 4.3
2014-Dec-11 06:33N 39°05' E 009°09'1312.5
2014-Dec-11 05:33N 39°00' E 009°24'1413.5
2014-Dec-11 04:33N 39°01' E 009°41'20111.8
2014-Dec-10 11:31N 40°12' E 013°46'1414.6
2014-Dec-10 10:33N 40°17' E 014°03'1514.6
2014-Dec-10 09:33N 40°25' E 014°19'1514.9
2014-Dec-10 08:33N 40°33' E 014°35'12 0.5
2014-Dec-09 10:23N 40°29' E 014°21'910.9
2014-Dec-09 09:33N 40°28' E 014°09'1211.8
2014-Dec-09 08:33N 40°40' E 014°09'1212.1
2014-Dec-09 07:33N 40°50' E 014°17'0 0.4
2014-Dec-09 06:24N 40°50' E 014°17'0 0.0
2014-Dec-09 04:18N 40°50' E 014°17'0 0.0
2014-Dec-09 03:24N 40°50' E 014°17'0 0.0
2014-Dec-09 02:30N 40°50' E 014°17'0 0.0
2014-Dec-09 01:27N 40°50' E 014°17'0 0.0
2014-Dec-09 00:24N 40°50' E 014°17'0 0.0
2014-Dec-08 23:06N 40°50' E 014°17'0 0.0
2014-Dec-08 22:18N 40°50' E 014°17'0 0.0
2014-Dec-08 21:27N 40°50' E 014°17'0 0.0
2014-Dec-08 20:24N 40°50' E 014°17'0 0.0
2014-Dec-08 19:33N 40°50' E 014°17'0 0.0
2014-Dec-08 18:18N 40°50' E 014°17'0 0.0
2014-Dec-08 16:24N 40°50' E 014°17'0 0.0
2014-Dec-08 15:30N 40°50' E 014°17'0 0.0
2014-Dec-08 13:24N 40°50' E 014°17'0 0.0
2014-Dec-08 11:26N 40°50' E 014°17'3 3.7
2014-Dec-08 10:31N 40°47' E 014°16'1414.7
2014-Dec-08 09:33N 40°37' E 014°03'1716.3
2014-Dec-08 08:31N 40°39' E 013°41'1616.4
2014-Dec-08 07:33N 40°42' E 013°20'20214.5
2014-Dec-07 17:33N 43°02' E 010°04'1616.5
2014-Dec-07 16:33N 43°18' E 010°09'1514.8
2014-Dec-07 15:33N 43°32' E 010°15'3 3.0
2014-Dec-07 14:31N 43°34' E 010°18'0 0.0
2014-Dec-07 13:31N 43°34' E 010°18'0 0.0
2014-Dec-07 12:31N 43°34' E 010°18'0 0.0
2014-Dec-07 11:31N 43°34' E 010°18'0 0.0
2014-Dec-07 10:31N 43°34' E 010°18'0 0.0
2014-Dec-07 09:31N 43°34' E 010°18'0 0.0
2014-Dec-07 08:31N 43°34' E 010°18'0 0.0
2014-Dec-07 07:31N 43°34' E 010°18'0 0.0
2014-Dec-07 06:31N 43°34' E 010°18'0 0.0
2014-Dec-07 05:31N 43°34' E 010°18'0 0.0
2014-Dec-07 04:31N 43°34' E 010°18'0 0.1
2014-Dec-07 03:31N 43°34' E 010°18'0 0.1
2014-Dec-07 02:31N 43°34' E 010°18'0 0.0
2014-Dec-07 01:31N 43°34' E 010°18'0 0.0
2014-Dec-07 00:31N 43°34' E 010°18'0 0.0
2014-Dec-06 23:31N 43°34' E 010°18'0 0.0
2014-Dec-06 22:31N 43°34' E 010°18'0 0.0
2014-Dec-06 21:31N 43°34' E 010°18'0 0.0
2014-Dec-06 20:31N 43°34' E 010°18'0 0.0
2014-Dec-06 19:31N 43°34' E 010°18'0 0.0
2014-Dec-06 18:31N 43°34' E 010°18'0 0.0
2014-Dec-06 17:28N 43°34' E 010°18'0 0.0
2014-Dec-06 16:31N 43°34' E 010°18'0 0.0
2014-Dec-06 15:31N 43°34' E 010°18'0 0.0
2014-Dec-06 14:31N 43°34' E 010°18'0 0.0
2014-Dec-06 13:31N 43°34' E 010°18'1 1.2
2014-Dec-06 12:33N 43°33' E 010°18'4 3.8
2014-Dec-06 11:33N 43°30' E 010°14'6 6.0
2014-Dec-06 10:33N 43°30' E 010°06'1514.6
2014-Dec-06 09:34N 43°35' E 009°47'1514.9
2014-Dec-06 08:34N 43°44' E 009°30'1514.9
2014-Dec-06 07:33N 43°54' E 009°15'1414.4
2014-Dec-06 06:33N 44°05' E 009°02'1515.1
2014-Dec-06 05:34N 44°17' E 008°48'8 8.5
2014-Dec-06 04:33N 44°25' E 008°47'0 0.1
2014-Dec-06 03:33N 44°25' E 008°47'0 0.0
2014-Dec-06 02:33N 44°25' E 008°47'0 0.0
2014-Dec-06 01:33N 44°25' E 008°47'0 0.0
2014-Dec-06 00:33N 44°25' E 008°47'0 0.0
2014-Dec-05 23:33N 44°25' E 008°47'0 0.0
2014-Dec-05 22:28N 44°25' E 008°47'0 0.0
2014-Dec-05 21:28N 44°25' E 008°47'0 0.0
2014-Dec-05 20:31N 44°25' E 008°47'0 0.0
2014-Dec-05 19:32N 44°25' E 008°47'0 0.0
2014-Dec-05 18:32N 44°25' E 008°47'0 0.0
2014-Dec-05 17:32N 44°25' E 008°47'0 0.0
2014-Dec-05 16:32N 44°25' E 008°47'0 0.0
2014-Dec-05 15:32N 44°25' E 008°47'0 0.0
2014-Dec-05 14:29N 44°25' E 008°47'0 0.0
2014-Dec-05 13:32N 44°25' E 008°47'0 0.0
2014-Dec-05 12:32N 44°25' E 008°47'0 0.0
2014-Dec-05 11:32N 44°25' E 008°47'0 0.1
2014-Dec-05 10:33N 44°25' E 008°47'4 3.8
2014-Dec-05 09:33N 44°22' E 008°43'1111.3
2014-Dec-05 08:34N 44°12' E 008°47'1716.7
2014-Dec-05 07:34N 43°55' E 008°52'1717.0
2014-Dec-05 06:34N 43°41' E 009°04'1817.9
2014-Dec-05 05:34N 43°28' E 009°22'1817.8
2014-Dec-05 04:33N 43°12' E 009°32'1817.8
2014-Dec-05 03:33N 42°56' E 009°42'1818.5
2014-Dec-05 02:34N 42°38' E 009°49'10717.7
2014-Dec-04 20:31N 40°52' E 009°60'8617.2
2014-Dec-04 15:32N 39°26' E 009°59'2517.6
2014-Dec-04 14:07N 39°05' E 009°42'1116.4
2014-Dec-04 13:27N 38°59' E 009°30'1516.9
2014-Dec-04 12:33N 39°04' E 009°12'1010.4
2014-Dec-04 11:33N 39°13' E 009°04'0 0.0
2014-Dec-04 10:30N 39°13' E 009°04'0 0.0
2014-Dec-04 09:33N 39°13' E 009°04'0 0.0
2014-Dec-04 08:33N 39°13' E 009°04'0 0.0
2014-Dec-04 07:33N 39°13' E 009°04'0 0.0
2014-Dec-04 06:33N 39°13' E 009°04'0 0.0
2014-Dec-04 05:33N 39°13' E 009°04'0 0.0
2014-Dec-04 04:33N 39°13' E 009°04'0 0.0
2014-Dec-04 03:32N 39°13' E 009°04'0 0.0
2014-Dec-04 02:32N 39°13' E 009°04'0 0.0
2014-Dec-04 01:32N 39°13' E 009°04'0 0.0
2014-Dec-04 00:32N 39°13' E 009°04'0 0.0
2014-Dec-03 23:32N 39°13' E 009°04'0 0.0
2014-Dec-03 22:32N 39°13' E 009°04'0 0.0
2014-Dec-03 21:32N 39°13' E 009°04'0 0.0
2014-Dec-03 20:32N 39°13' E 009°04'0 0.0
2014-Dec-03 19:32N 39°13' E 009°04'0 0.0
2014-Dec-03 18:32N 39°13' E 009°04'0 0.0
2014-Dec-03 17:32N 39°13' E 009°04'0 0.0
2014-Dec-03 16:32N 39°13' E 009°04'0 0.0
2014-Dec-03 15:29N 39°13' E 009°04'0 0.0
2014-Dec-03 14:32N 39°13' E 009°04'0 0.0
2014-Dec-03 13:32N 39°13' E 009°04'3 3.2
2014-Dec-03 12:33N 39°10' E 009°06'1010.4
2014-Dec-03 11:33N 39°02' E 009°15'1616.2
2014-Dec-03 10:33N 38°53' E 009°33'22916.4
2014-Dec-02 20:33N 36°47' E 013°35'1615.7
2014-Dec-02 19:33N 36°42' E 013°54'1615.8
2014-Dec-02 18:33N 36°36' E 014°12'1616.0
2014-Dec-02 17:33N 36°30' E 014°30'  
Track history (hours):
 
Tides and Currents Weather Stations Pressure Air Temp Water Temp Dewpoint Dewpoint Depression Visibility Wind Speed Wind Dir Waves Ship Positions

Livorno Express

Last reported at 2014-Dec-12 11:22 UTC. Time now 2014-Dec-19 12:58 UTC.
Position N 38°54' E 009°29'.

Type: Ship (hazmat cat A). MMSI: 310541000.

Date/timePositionNaut miles runAvg speedWind from/ knotsBaromVisibWave heightAir tempDewpointWater temp
2014-Dec-12 11:22N 38°54' E 009°29'1316.5
2014-Dec-12 10:34N 39°02' E 009°14'1212.3
2014-Dec-12 09:33N 39°12' E 009°05'1 1.1
2014-Dec-12 08:32N 39°13' E 009°04'0 0.0
2014-Dec-12 07:32N 39°13' E 009°04'0 0.0
2014-Dec-12 06:32N 39°13' E 009°04'0 0.0
2014-Dec-12 05:32N 39°13' E 009°04'0 0.0
2014-Dec-12 04:32N 39°13' E 009°04'0 0.0
2014-Dec-12 03:32N 39°13' E 009°04'0 0.0
2014-Dec-12 02:32N 39°13' E 009°04'0 0.0
2014-Dec-12 01:33N 39°13' E 009°04'0 0.0
2014-Dec-12 00:33N 39°13' E 009°04'0 0.0
2014-Dec-11 23:33N 39°13' E 009°04'0 0.0
2014-Dec-11 22:32N 39°13' E 009°04'0 0.0
2014-Dec-11 21:33N 39°13' E 009°04'0 0.0
2014-Dec-11 20:33N 39°13' E 009°04'0 0.0
2014-Dec-11 19:32N 39°13' E 009°04'0 0.0
2014-Dec-11 18:32N 39°13' E 009°04'0 0.0
2014-Dec-11 17:32N 39°13' E 009°04'0 0.0
2014-Dec-11 16:32N 39°13' E 009°04'0 0.0
2014-Dec-11 15:33N 39°13' E 009°04'0 0.0
2014-Dec-11 14:33N 39°13' E 009°04'0 0.0
2014-Dec-11 13:32N 39°13' E 009°04'0 0.0
2014-Dec-11 12:32N 39°13' E 009°04'0 0.0
2014-Dec-11 11:31N 39°13' E 009°04'0 0.0
2014-Dec-11 10:31N 39°13' E 009°04'0 0.0
2014-Dec-11 09:31N 39°13' E 009°04'0 0.0
2014-Dec-11 08:33N 39°13' E 009°04'4 4.0
2014-Dec-11 07:33N 39°09' E 009°06'4 4.3
2014-Dec-11 06:33N 39°05' E 009°09'1312.5
2014-Dec-11 05:33N 39°00' E 009°24'1413.5
2014-Dec-11 04:33N 39°01' E 009°41'20111.8
2014-Dec-10 11:31N 40°12' E 013°46'1414.6
2014-Dec-10 10:33N 40°17' E 014°03'1514.6
2014-Dec-10 09:33N 40°25' E 014°19'1514.9
2014-Dec-10 08:33N 40°33' E 014°35'12 0.5
2014-Dec-09 10:23N 40°29' E 014°21'910.9
2014-Dec-09 09:33N 40°28' E 014°09'1211.8
2014-Dec-09 08:33N 40°40' E 014°09'1212.1
2014-Dec-09 07:33N 40°50' E 014°17'0 0.4
2014-Dec-09 06:24N 40°50' E 014°17'0 0.0
2014-Dec-09 04:18N 40°50' E 014°17'0 0.0
2014-Dec-09 03:24N 40°50' E 014°17'0 0.0
2014-Dec-09 02:30N 40°50' E 014°17'0 0.0
2014-Dec-09 01:27N 40°50' E 014°17'0 0.0
2014-Dec-09 00:24N 40°50' E 014°17'0 0.0
2014-Dec-08 23:06N 40°50' E 014°17'0 0.0
2014-Dec-08 22:18N 40°50' E 014°17'0 0.0
2014-Dec-08 21:27N 40°50' E 014°17'0 0.0
2014-Dec-08 20:24N 40°50' E 014°17'0 0.0
2014-Dec-08 19:33N 40°50' E 014°17'0 0.0
2014-Dec-08 18:18N 40°50' E 014°17'0 0.0
2014-Dec-08 16:24N 40°50' E 014°17'0 0.0
2014-Dec-08 15:30N 40°50' E 014°17'0 0.0
2014-Dec-08 13:24N 40°50' E 014°17'0 0.0
2014-Dec-08 11:26N 40°50' E 014°17'3 3.7
2014-Dec-08 10:31N 40°47' E 014°16'1414.7
2014-Dec-08 09:33N 40°37' E 014°03'1716.3
2014-Dec-08 08:31N 40°39' E 013°41'1616.4
2014-Dec-08 07:33N 40°42' E 013°20'20214.5
2014-Dec-07 17:33N 43°02' E 010°04'1616.5
2014-Dec-07 16:33N 43°18' E 010°09'1514.8
2014-Dec-07 15:33N 43°32' E 010°15'3 3.0
2014-Dec-07 14:31N 43°34' E 010°18'0 0.0
2014-Dec-07 13:31N 43°34' E 010°18'0 0.0
2014-Dec-07 12:31N 43°34' E 010°18'0 0.0
2014-Dec-07 11:31N 43°34' E 010°18'0 0.0
2014-Dec-07 10:31N 43°34' E 010°18'0 0.0
2014-Dec-07 09:31N 43°34' E 010°18'0 0.0
2014-Dec-07 08:31N 43°34' E 010°18'0 0.0
2014-Dec-07 07:31N 43°34' E 010°18'0 0.0
2014-Dec-07 06:31N 43°34' E 010°18'0 0.0
2014-Dec-07 05:31N 43°34' E 010°18'0 0.0
2014-Dec-07 04:31N 43°34' E 010°18'0 0.1
2014-Dec-07 03:31N 43°34' E 010°18'0 0.1
2014-Dec-07 02:31N 43°34' E 010°18'0 0.0
2014-Dec-07 01:31N 43°34' E 010°18'0 0.0
2014-Dec-07 00:31N 43°34' E 010°18'0 0.0
2014-Dec-06 23:31N 43°34' E 010°18'0 0.0
2014-Dec-06 22:31N 43°34' E 010°18'0 0.0
2014-Dec-06 21:31N 43°34' E 010°18'0 0.0
2014-Dec-06 20:31N 43°34' E 010°18'0 0.0
2014-Dec-06 19:31N 43°34' E 010°18'0 0.0
2014-Dec-06 18:31N 43°34' E 010°18'0 0.0
2014-Dec-06 17:28N 43°34' E 010°18'0 0.0
2014-Dec-06 16:31N 43°34' E 010°18'0 0.0
2014-Dec-06 15:31N 43°34' E 010°18'0 0.0
2014-Dec-06 14:31N 43°34' E 010°18'0 0.0
2014-Dec-06 13:31N 43°34' E 010°18'1 1.2
2014-Dec-06 12:33N 43°33' E 010°18'4 3.8
2014-Dec-06 11:33N 43°30' E 010°14'6 6.0
2014-Dec-06 10:33N 43°30' E 010°06'1514.6
2014-Dec-06 09:34N 43°35' E 009°47'1514.9
2014-Dec-06 08:34N 43°44' E 009°30'1514.9
2014-Dec-06 07:33N 43°54' E 009°15'1414.4
2014-Dec-06 06:33N 44°05' E 009°02'1515.1
2014-Dec-06 05:34N 44°17' E 008°48'8 8.5
2014-Dec-06 04:33N 44°25' E 008°47'0 0.1
2014-Dec-06 03:33N 44°25' E 008°47'0 0.0
2014-Dec-06 02:33N 44°25' E 008°47'0 0.0
2014-Dec-06 01:33N 44°25' E 008°47'0 0.0
2014-Dec-06 00:33N 44°25' E 008°47'0 0.0
2014-Dec-05 23:33N 44°25' E 008°47'0 0.0
2014-Dec-05 22:28N 44°25' E 008°47'0 0.0
2014-Dec-05 21:28N 44°25' E 008°47'0 0.0
2014-Dec-05 20:31N 44°25' E 008°47'0 0.0
2014-Dec-05 19:32N 44°25' E 008°47'0 0.0
2014-Dec-05 18:32N 44°25' E 008°47'0 0.0
2014-Dec-05 17:32N 44°25' E 008°47'0 0.0
2014-Dec-05 16:32N 44°25' E 008°47'0 0.0
2014-Dec-05 15:32N 44°25' E 008°47'0 0.0
2014-Dec-05 14:29N 44°25' E 008°47'0 0.0
2014-Dec-05 13:32N 44°25' E 008°47'0 0.0
2014-Dec-05 12:32N 44°25' E 008°47'0 0.0
2014-Dec-05 11:32N 44°25' E 008°47'0 0.1
2014-Dec-05 10:33N 44°25' E 008°47'4 3.8
2014-Dec-05 09:33N 44°22' E 008°43'1111.3
2014-Dec-05 08:34N 44°12' E 008°47'1716.7
2014-Dec-05 07:34N 43°55' E 008°52'1717.0
2014-Dec-05 06:34N 43°41' E 009°04'1817.9
2014-Dec-05 05:34N 43°28' E 009°22'1817.8
2014-Dec-05 04:33N 43°12' E 009°32'1817.8
2014-Dec-05 03:33N 42°56' E 009°42'1818.5
2014-Dec-05 02:34N 42°38' E 009°49'10717.7
2014-Dec-04 20:31N 40°52' E 009°60'8617.2
2014-Dec-04 15:32N 39°26' E 009°59'2517.6
2014-Dec-04 14:07N 39°05' E 009°42'1116.4
2014-Dec-04 13:27N 38°59' E 009°30'1516.9
2014-Dec-04 12:33N 39°04' E 009°12'1010.4
2014-Dec-04 11:33N 39°13' E 009°04'0 0.0
2014-Dec-04 10:30N 39°13' E 009°04'0 0.0
2014-Dec-04 09:33N 39°13' E 009°04'0 0.0
2014-Dec-04 08:33N 39°13' E 009°04'0 0.0
2014-Dec-04 07:33N 39°13' E 009°04'0 0.0
2014-Dec-04 06:33N 39°13' E 009°04'0 0.0
2014-Dec-04 05:33N 39°13' E 009°04'0 0.0
2014-Dec-04 04:33N 39°13' E 009°04'0 0.0
2014-Dec-04 03:32N 39°13' E 009°04'0 0.0
2014-Dec-04 02:32N 39°13' E 009°04'0 0.0
2014-Dec-04 01:32N 39°13' E 009°04'0 0.0
2014-Dec-04 00:32N 39°13' E 009°04'0 0.0
2014-Dec-03 23:32N 39°13' E 009°04'0 0.0
2014-Dec-03 22:32N 39°13' E 009°04'0 0.0
2014-Dec-03 21:32N 39°13' E 009°04'0 0.0
2014-Dec-03 20:32N 39°13' E 009°04'0 0.0
2014-Dec-03 19:32N 39°13' E 009°04'0 0.0
2014-Dec-03 18:32N 39°13' E 009°04'0 0.0
2014-Dec-03 17:32N 39°13' E 009°04'0 0.0
2014-Dec-03 16:32N 39°13' E 009°04'0 0.0
2014-Dec-03 15:29N 39°13' E 009°04'0 0.0
2014-Dec-03 14:32N 39°13' E 009°04'0 0.0
2014-Dec-03 13:32N 39°13' E 009°04'3 3.2
2014-Dec-03 12:33N 39°10' E 009°06'1010.4
2014-Dec-03 11:33N 39°02' E 009°15'1616.2
2014-Dec-03 10:33N 38°53' E 009°33'22916.4
2014-Dec-02 20:33N 36°47' E 013°35'1615.7
2014-Dec-02 19:33N 36°42' E 013°54'1615.8
2014-Dec-02 18:33N 36°36' E 014°12'1616.0
2014-Dec-02 17:33N 36°30' E 014°30'  

Dump ship's entire track history